Puerto Vallarta, JAL, Mexico
Current Conditions -  °F | °C
As of 5:46 PM on Thursday 27 Nov 2014 (Local Time) from MMPR Reporting Station
Clear Clear  
Wind Chill: 81°   Ceiling: Unl
Heat Index: 81°   Visibility: 15mi
Dew Point: 61°   Wind: 0mph
Humidity: 51%   Direction: NA
Pressure: 29.87"   Gusts: NA
Location:  20.62°N, 105.23°W
Report Text: MMPR 272346Z 00000KT 15SM SKC 27/16 A2987 RMK SLP114 52010 958 CSCC 3/4 QUADS
Loading
Personal Weather Stations






























Interactive Weather Map New forecast layout! Learn more

10-Day Weather Forecast

Advertisements
Track Severe Weather on mobile